sensor_id;sensor_type;location;lat;lon;timestamp;P1;durP1;ratioP1;P2;durP2;ratioP2
58808;SDS011;44579;51.672;7.834;2022-09-25T00:00:48;37.67;;;18.30;;
58808;SDS011;44579;51.672;7.834;2022-09-25T00:03:18;44.40;;;17.38;;
58808;SDS011;44579;51.672;7.834;2022-09-25T00:05:45;39.70;;;16.15;;
58808;SDS011;44579;51.672;7.834;2022-09-25T00:08:16;41.42;;;17.90;;
58808;SDS011;44579;51.672;7.834;2022-09-25T00:10:45;39.15;;;17.50;;
58808;SDS011;44579;51.672;7.834;2022-09-25T00:13:18;35.60;;;16.55;;
58808;SDS011;44579;51.672;7.834;2022-09-25T00:15:50;37.85;;;14.65;;
58808;SDS011;44579;51.672;7.834;2022-09-25T00:18:18;32.80;;;15.65;;
58808;SDS011;44579;51.672;7.834;2022-09-25T00:21:05;30.10;;;14.18;;
58808;SDS011;44579;51.672;7.834;2022-09-25T00:23:33;35.38;;;12.48;;
58808;SDS011;44579;51.672;7.834;2022-09-25T00:26:01;30.75;;;14.35;;
58808;SDS011;44579;51.672;7.834;2022-09-25T00:28:31;42.05;;;15.40;;
58808;SDS011;44579;51.672;7.834;2022-09-25T00:30:58;35.40;;;14.23;;
58808;SDS011;44579;51.672;7.834;2022-09-25T00:33:33;29.52;;;12.60;;
58808;SDS011;44579;51.672;7.834;2022-09-25T00:36:01;31.45;;;13.00;;
58808;SDS011;44579;51.672;7.834;2022-09-25T00:38:31;27.65;;;12.57;;
58808;SDS011;44579;51.672;7.834;2022-09-25T00:40:59;23.08;;;11.95;;
58808;SDS011;44579;51.672;7.834;2022-09-25T00:46:21;31.08;;;12.55;;
58808;SDS011;44579;51.672;7.834;2022-09-25T00:48:57;24.88;;;11.27;;
58808;SDS011;44579;51.672;7.834;2022-09-25T00:52:03;28.23;;;10.85;;
58808;SDS011;44579;51.672;7.834;2022-09-25T00:54:25;25.48;;;11.38;;
58808;SDS011;44579;51.672;7.834;2022-09-25T00:56:59;22.98;;;9.23;;
58808;SDS011;44579;51.672;7.834;2022-09-25T00:59:29;24.08;;;9.48;;
58808;SDS011;44579;51.672;7.834;2022-09-25T01:01:59;28.83;;;10.05;;
58808;SDS011;44579;51.672;7.834;2022-09-25T01:04:26;28.38;;;10.35;;
58808;SDS011;44579;51.672;7.834;2022-09-25T01:06:56;25.27;;;9.10;;
58808;SDS011;44579;51.672;7.834;2022-09-25T01:09:24;22.13;;;7.82;;
58808;SDS011;44579;51.672;7.834;2022-09-25T01:11:51;23.90;;;8.35;;
58808;SDS011;44579;51.672;7.834;2022-09-25T01:16:47;22.58;;;7.95;;
58808;SDS011;44579;51.672;7.834;2022-09-25T01:27:36;22.05;;;5.85;;
58808;SDS011;44579;51.672;7.834;2022-09-25T01:30:16;15.20;;;5.53;;
58808;SDS011;44579;51.672;7.834;2022-09-25T01:32:49;20.48;;;5.57;;
58808;SDS011;44579;51.672;7.834;2022-09-25T01:38:12;17.92;;;5.65;;
58808;SDS011;44579;51.672;7.834;2022-09-25T01:43:40;13.23;;;5.30;;
58808;SDS011;44579;51.672;7.834;2022-09-25T01:46:15;20.60;;;5.57;;
58808;SDS011;44579;51.672;7.834;2022-09-25T01:48:52;12.45;;;4.30;;
58808;SDS011;44579;51.672;7.834;2022-09-25T01:51:24;25.30;;;4.50;;
58808;SDS011;44579;51.672;7.834;2022-09-25T01:54:13;7.53;;;3.78;;
58808;SDS011;44579;51.672;7.834;2022-09-25T01:56:50;15.32;;;5.57;;
58808;SDS011;44579;51.672;7.834;2022-09-25T02:01:52;13.60;;;4.35;;
58808;SDS011;44579;51.672;7.834;2022-09-25T02:04:31;10.43;;;3.70;;
58808;SDS011;44579;51.672;7.834;2022-09-25T02:07:03;12.25;;;3.72;;
58808;SDS011;44579;51.672;7.834;2022-09-25T02:09:45;17.48;;;4.90;;
58808;SDS011;44579;51.672;7.834;2022-09-25T02:12:27;18.30;;;4.15;;
58808;SDS011;44579;51.672;7.834;2022-09-25T02:15:16;15.10;;;4.20;;
58808;SDS011;44579;51.672;7.834;2022-09-25T02:17:53;14.02;;;4.30;;
58808;SDS011;44579;51.672;7.834;2022-09-25T02:20:49;20.73;;;4.38;;
58808;SDS011;44579;51.672;7.834;2022-09-25T02:26:30;18.95;;;3.88;;
58808;SDS011;44579;51.672;7.834;2022-09-25T02:28:58;13.05;;;3.67;;
58808;SDS011;44579;51.672;7.834;2022-09-25T02:31:27;12.90;;;3.88;;
58808;SDS011;44579;51.672;7.834;2022-09-25T02:34:01;17.02;;;3.97;;
58808;SDS011;44579;51.672;7.834;2022-09-25T02:36:29;10.45;;;3.83;;
58808;SDS011;44579;51.672;7.834;2022-09-25T02:38:57;18.15;;;3.90;;
58808;SDS011;44579;51.672;7.834;2022-09-25T02:44:07;16.70;;;4.35;;
58808;SDS011;44579;51.672;7.834;2022-09-25T02:46:42;13.90;;;3.63;;
58808;SDS011;44579;51.672;7.834;2022-09-25T02:49:48;17.65;;;3.88;;
58808;SDS011;44579;51.672;7.834;2022-09-25T02:55:18;22.48;;;3.47;;
58808;SDS011;44579;51.672;7.834;2022-09-25T02:58:20;15.20;;;4.10;;
58808;SDS011;44579;51.672;7.834;2022-09-25T03:01:03;14.50;;;3.03;;
58808;SDS011;44579;51.672;7.834;2022-09-25T03:03:33;14.68;;;3.78;;
58808;SDS011;44579;51.672;7.834;2022-09-25T03:06:02;13.80;;;3.67;;
58808;SDS011;44579;51.672;7.834;2022-09-25T03:08:31;11.68;;;3.38;;
58808;SDS011;44579;51.672;7.834;2022-09-25T03:11:10;13.95;;;3.15;;
58808;SDS011;44579;51.672;7.834;2022-09-25T03:13:39;15.70;;;3.28;;
58808;SDS011;44579;51.672;7.834;2022-09-25T03:16:13;24.13;;;3.75;;
58808;SDS011;44579;51.672;7.834;2022-09-25T03:18:45;6.38;;;2.30;;
58808;SDS011;44579;51.672;7.834;2022-09-25T03:21:13;14.30;;;3.03;;
58808;SDS011;44579;51.672;7.834;2022-09-25T03:23:39;18.17;;;3.28;;
58808;SDS011;44579;51.672;7.834;2022-09-25T03:26:06;11.07;;;2.40;;
58808;SDS011;44579;51.672;7.834;2022-09-25T03:28:33;14.35;;;2.85;;
58808;SDS011;44579;51.672;7.834;2022-09-25T03:31:02;11.52;;;2.28;;
58808;SDS011;44579;51.672;7.834;2022-09-25T03:33:35;17.63;;;2.80;;
58808;SDS011;44579;51.672;7.834;2022-09-25T03:36:08;9.60;;;2.25;;
58808;SDS011;44579;51.672;7.834;2022-09-25T03:38:37;12.48;;;2.10;;
58808;SDS011;44579;51.672;7.834;2022-09-25T03:41:06;14.10;;;2.65;;
58808;SDS011;44579;51.672;7.834;2022-09-25T03:43:38;21.55;;;2.80;;
58808;SDS011;44579;51.672;7.834;2022-09-25T03:46:07;11.73;;;2.15;;
58808;SDS011;44579;51.672;7.834;2022-09-25T03:48:37;15.77;;;2.50;;
58808;SDS011;44579;51.672;7.834;2022-09-25T03:51:04;14.38;;;3.20;;
58808;SDS011;44579;51.672;7.834;2022-09-25T03:53:32;18.88;;;2.20;;
58808;SDS011;44579;51.672;7.834;2022-09-25T03:55:59;9.35;;;2.60;;
58808;SDS011;44579;51.672;7.834;2022-09-25T03:58:27;15.45;;;2.35;;
58808;SDS011;44579;51.672;7.834;2022-09-25T04:00:54;9.10;;;1.90;;
58808;SDS011;44579;51.672;7.834;2022-09-25T04:03:26;7.55;;;2.70;;
58808;SDS011;44579;51.672;7.834;2022-09-25T04:05:55;15.55;;;2.20;;
58808;SDS011;44579;51.672;7.834;2022-09-25T04:08:24;18.52;;;2.72;;
58808;SDS011;44579;51.672;7.834;2022-09-25T04:10:55;18.42;;;1.92;;
58808;SDS011;44579;51.672;7.834;2022-09-25T04:13:25;15.77;;;2.20;;
58808;SDS011;44579;51.672;7.834;2022-09-25T04:15:56;14.82;;;2.50;;
58808;SDS011;44579;51.672;7.834;2022-09-25T04:18:25;14.32;;;2.20;;
58808;SDS011;44579;51.672;7.834;2022-09-25T04:21:00;11.10;;;2.13;;
58808;SDS011;44579;51.672;7.834;2022-09-25T04:23:29;8.98;;;2.35;;
58808;SDS011;44579;51.672;7.834;2022-09-25T04:25:57;10.23;;;2.60;;
58808;SDS011;44579;51.672;7.834;2022-09-25T04:28:24;15.90;;;1.77;;
58808;SDS011;44579;51.672;7.834;2022-09-25T04:30:51;13.75;;;2.47;;
58808;SDS011;44579;51.672;7.834;2022-09-25T04:33:18;18.23;;;2.00;;
58808;SDS011;44579;51.672;7.834;2022-09-25T04:36:03;10.80;;;2.25;;
58808;SDS011;44579;51.672;7.834;2022-09-25T04:38:30;13.70;;;2.22;;
58808;SDS011;44579;51.672;7.834;2022-09-25T04:40:58;12.40;;;2.00;;
58808;SDS011;44579;51.672;7.834;2022-09-25T04:43:27;10.35;;;2.30;;
58808;SDS011;44579;51.672;7.834;2022-09-25T04:45:54;8.18;;;2.03;;
58808;SDS011;44579;51.672;7.834;2022-09-25T04:48:25;14.82;;;2.00;;
58808;SDS011;44579;51.672;7.834;2022-09-25T04:50:52;10.63;;;2.17;;
58808;SDS011;44579;51.672;7.834;2022-09-25T04:53:19;20.48;;;2.63;;
58808;SDS011;44579;51.672;7.834;2022-09-25T04:55:46;5.60;;;1.50;;
58808;SDS011;44579;51.672;7.834;2022-09-25T04:58:13;15.30;;;2.00;;
58808;SDS011;44579;51.672;7.834;2022-09-25T05:00:39;14.97;;;2.00;;
58808;SDS011;44579;51.672;7.834;2022-09-25T05:03:07;14.82;;;3.65;;
58808;SDS011;44579;51.672;7.834;2022-09-25T05:05:34;15.82;;;2.35;;
58808;SDS011;44579;51.672;7.834;2022-09-25T05:08:01;10.98;;;2.63;;
58808;SDS011;44579;51.672;7.834;2022-09-25T05:10:30;13.88;;;2.33;;
58808;SDS011;44579;51.672;7.834;2022-09-25T05:13:00;9.13;;;1.75;;
58808;SDS011;44579;51.672;7.834;2022-09-25T05:15:29;12.93;;;2.22;;
58808;SDS011;44579;51.672;7.834;2022-09-25T05:18:04;12.00;;;1.95;;
58808;SDS011;44579;51.672;7.834;2022-09-25T05:20:35;10.40;;;2.33;;
58808;SDS011;44579;51.672;7.834;2022-09-25T05:23:02;11.75;;;2.78;;
58808;SDS011;44579;51.672;7.834;2022-09-25T05:25:29;17.85;;;3.50;;
58808;SDS011;44579;51.672;7.834;2022-09-25T05:32:52;13.05;;;1.95;;
58808;SDS011;44579;51.672;7.834;2022-09-25T05:35:20;11.23;;;2.35;;
58808;SDS011;44579;51.672;7.834;2022-09-25T05:37:47;14.68;;;2.17;;
58808;SDS011;44579;51.672;7.834;2022-09-25T05:40:15;15.75;;;2.53;;
58808;SDS011;44579;51.672;7.834;2022-09-25T05:42:43;12.40;;;2.55;;
58808;SDS011;44579;51.672;7.834;2022-09-25T05:45:10;11.10;;;2.55;;
58808;SDS011;44579;51.672;7.834;2022-09-25T05:47:38;14.07;;;2.50;;
58808;SDS011;44579;51.672;7.834;2022-09-25T05:50:06;16.23;;;2.30;;
58808;SDS011;44579;51.672;7.834;2022-09-25T05:52:34;10.05;;;2.28;;
58808;SDS011;44579;51.672;7.834;2022-09-25T05:55:02;6.22;;;1.60;;
58808;SDS011;44579;51.672;7.834;2022-09-25T05:57:31;10.73;;;2.40;;
58808;SDS011;44579;51.672;7.834;2022-09-25T06:00:00;12.63;;;2.28;;
58808;SDS011;44579;51.672;7.834;2022-09-25T06:02:37;12.50;;;2.55;;
58808;SDS011;44579;51.672;7.834;2022-09-25T06:05:03;12.00;;;2.33;;
58808;SDS011;44579;51.672;7.834;2022-09-25T06:07:30;13.60;;;1.60;;
58808;SDS011;44579;51.672;7.834;2022-09-25T06:09:57;21.40;;;2.85;;
58808;SDS011;44579;51.672;7.834;2022-09-25T06:12:24;14.60;;;1.95;;
58808;SDS011;44579;51.672;7.834;2022-09-25T06:14:51;14.88;;;2.33;;
58808;SDS011;44579;51.672;7.834;2022-09-25T06:17:18;14.02;;;2.58;;
58808;SDS011;44579;51.672;7.834;2022-09-25T06:19:45;18.00;;;2.83;;
58808;SDS011;44579;51.672;7.834;2022-09-25T06:22:12;9.55;;;2.40;;
58808;SDS011;44579;51.672;7.834;2022-09-25T06:24:39;13.05;;;2.95;;
58808;SDS011;44579;51.672;7.834;2022-09-25T06:27:07;19.00;;;2.38;;
58808;SDS011;44579;51.672;7.834;2022-09-25T06:29:34;6.88;;;2.38;;
58808;SDS011;44579;51.672;7.834;2022-09-25T06:32:01;14.20;;;3.15;;
58808;SDS011;44579;51.672;7.834;2022-09-25T06:36:55;13.43;;;3.10;;
58808;SDS011;44579;51.672;7.834;2022-09-25T06:39:22;14.57;;;2.03;;
58808;SDS011;44579;51.672;7.834;2022-09-25T06:41:50;14.33;;;2.80;;
58808;SDS011;44579;51.672;7.834;2022-09-25T06:44:19;15.93;;;3.05;;
58808;SDS011;44579;51.672;7.834;2022-09-25T06:46:48;16.50;;;2.78;;
58808;SDS011;44579;51.672;7.834;2022-09-25T06:49:15;13.25;;;2.92;;
58808;SDS011;44579;51.672;7.834;2022-09-25T06:51:42;9.37;;;2.70;;
58808;SDS011;44579;51.672;7.834;2022-09-25T06:54:09;13.98;;;2.97;;
58808;SDS011;44579;51.672;7.834;2022-09-25T06:56:35;25.93;;;3.87;;
58808;SDS011;44579;51.672;7.834;2022-09-25T06:59:02;18.05;;;2.85;;
58808;SDS011;44579;51.672;7.834;2022-09-25T07:01:30;14.73;;;2.80;;
58808;SDS011;44579;51.672;7.834;2022-09-25T07:03:57;10.00;;;2.40;;
58808;SDS011;44579;51.672;7.834;2022-09-25T07:06:24;12.45;;;2.63;;
58808;SDS011;44579;51.672;7.834;2022-09-25T07:08:52;8.98;;;2.60;;
58808;SDS011;44579;51.672;7.834;2022-09-25T07:11:20;11.07;;;2.90;;
58808;SDS011;44579;51.672;7.834;2022-09-25T07:13:48;20.58;;;2.90;;
58808;SDS011;44579;51.672;7.834;2022-09-25T07:16:17;12.10;;;2.85;;
58808;SDS011;44579;51.672;7.834;2022-09-25T07:18:45;18.25;;;2.72;;
58808;SDS011;44579;51.672;7.834;2022-09-25T07:21:13;13.88;;;2.70;;
58808;SDS011;44579;51.672;7.834;2022-09-25T07:23:41;12.85;;;2.90;;
58808;SDS011;44579;51.672;7.834;2022-09-25T07:26:10;14.90;;;2.72;;
58808;SDS011;44579;51.672;7.834;2022-09-25T07:28:42;6.57;;;1.92;;
58808;SDS011;44579;51.672;7.834;2022-09-25T07:31:13;13.27;;;2.40;;
58808;SDS011;44579;51.672;7.834;2022-09-25T07:33:59;10.43;;;1.90;;
58808;SDS011;44579;51.672;7.834;2022-09-25T07:36:30;7.80;;;2.78;;
58808;SDS011;44579;51.672;7.834;2022-09-25T07:38:58;16.52;;;2.60;;
58808;SDS011;44579;51.672;7.834;2022-09-25T07:41:24;21.07;;;2.37;;
58808;SDS011;44579;51.672;7.834;2022-09-25T07:43:52;13.53;;;2.27;;
58808;SDS011;44579;51.672;7.834;2022-09-25T07:46:41;6.75;;;1.70;;
58808;SDS011;44579;51.672;7.834;2022-09-25T07:49:09;12.25;;;2.58;;
58808;SDS011;44579;51.672;7.834;2022-09-25T07:51:37;13.25;;;2.20;;
58808;SDS011;44579;51.672;7.834;2022-09-25T07:54:04;13.23;;;2.35;;
58808;SDS011;44579;51.672;7.834;2022-09-25T07:56:31;17.13;;;2.10;;
58808;SDS011;44579;51.672;7.834;2022-09-25T07:58:59;16.08;;;2.25;;
58808;SDS011;44579;51.672;7.834;2022-09-25T08:01:26;16.53;;;2.73;;
58808;SDS011;44579;51.672;7.834;2022-09-25T08:03:53;8.32;;;1.63;;
58808;SDS011;44579;51.672;7.834;2022-09-25T08:06:20;10.90;;;2.45;;
58808;SDS011;44579;51.672;7.834;2022-09-25T08:08:46;16.27;;;2.60;;
58808;SDS011;44579;51.672;7.834;2022-09-25T08:11:14;16.17;;;1.80;;
58808;SDS011;44579;51.672;7.834;2022-09-25T08:13:42;9.55;;;1.63;;
58808;SDS011;44579;51.672;7.834;2022-09-25T08:16:10;11.27;;;2.60;;
58808;SDS011;44579;51.672;7.834;2022-09-25T08:18:39;5.95;;;1.42;;
58808;SDS011;44579;51.672;7.834;2022-09-25T08:21:11;14.52;;;2.42;;
58808;SDS011;44579;51.672;7.834;2022-09-25T08:23:40;11.10;;;1.75;;
58808;SDS011;44579;51.672;7.834;2022-09-25T08:26:13;10.20;;;1.90;;
58808;SDS011;44579;51.672;7.834;2022-09-25T08:28:40;10.88;;;1.75;;
58808;SDS011;44579;51.672;7.834;2022-09-25T08:31:07;13.80;;;2.17;;
58808;SDS011;44579;51.672;7.834;2022-09-25T08:33:34;17.05;;;1.85;;
58808;SDS011;44579;51.672;7.834;2022-09-25T08:36:03;13.70;;;2.42;;
58808;SDS011;44579;51.672;7.834;2022-09-25T08:38:30;9.52;;;1.42;;
58808;SDS011;44579;51.672;7.834;2022-09-25T08:41:08;12.38;;;1.65;;
58808;SDS011;44579;51.672;7.834;2022-09-25T08:43:59;6.75;;;1.48;;
58808;SDS011;44579;51.672;7.834;2022-09-25T08:49:27;16.30;;;2.42;;
58808;SDS011;44579;51.672;7.834;2022-09-25T08:52:05;15.70;;;2.00;;
58808;SDS011;44579;51.672;7.834;2022-09-25T08:54:36;8.52;;;2.05;;
58808;SDS011;44579;51.672;7.834;2022-09-25T08:57:30;18.85;;;2.08;;
58808;SDS011;44579;51.672;7.834;2022-09-25T09:00:18;13.73;;;2.47;;
58808;SDS011;44579;51.672;7.834;2022-09-25T09:02:51;13.95;;;2.00;;
58808;SDS011;44579;51.672;7.834;2022-09-25T09:05:21;14.13;;;1.98;;
58808;SDS011;44579;51.672;7.834;2022-09-25T09:07:57;6.75;;;1.42;;
58808;SDS011;44579;51.672;7.834;2022-09-25T09:10:32;11.85;;;1.90;;
58808;SDS011;44579;51.672;7.834;2022-09-25T09:13:13;16.15;;;2.00;;
58808;SDS011;44579;51.672;7.834;2022-09-25T09:15:48;12.93;;;1.70;;
58808;SDS011;44579;51.672;7.834;2022-09-25T09:18:26;17.77;;;2.10;;
58808;SDS011;44579;51.672;7.834;2022-09-25T09:20:55;14.30;;;1.90;;
58808;SDS011;44579;51.672;7.834;2022-09-25T09:23:32;7.80;;;1.67;;
58808;SDS011;44579;51.672;7.834;2022-09-25T09:26:03;7.85;;;1.00;;
58808;SDS011;44579;51.672;7.834;2022-09-25T09:34:47;11.70;;;1.63;;
58808;SDS011;44579;51.672;7.834;2022-09-25T09:40:14;6.43;;;1.25;;
58808;SDS011;44579;51.672;7.834;2022-09-25T09:45:40;11.70;;;1.45;;
58808;SDS011;44579;51.672;7.834;2022-09-25T09:48:18;9.45;;;1.50;;
58808;SDS011;44579;51.672;7.834;2022-09-25T09:53:48;7.95;;;1.20;;
58808;SDS011;44579;51.672;7.834;2022-09-25T09:56:29;5.72;;;1.27;;
58808;SDS011;44579;51.672;7.834;2022-09-25T09:59:02;7.47;;;1.35;;
58808;SDS011;44579;51.672;7.834;2022-09-25T10:01:33;12.18;;;1.88;;
58808;SDS011;44579;51.672;7.834;2022-09-25T10:04:08;6.97;;;1.48;;
58808;SDS011;44579;51.672;7.834;2022-09-25T10:06:42;3.83;;;1.00;;
58808;SDS011;44579;51.672;7.834;2022-09-25T10:09:14;11.30;;;1.60;;
58808;SDS011;44579;51.672;7.834;2022-09-25T10:11:42;9.63;;;3.72;;
58808;SDS011;44579;51.672;7.834;2022-09-25T10:14:15;5.95;;;2.17;;
58808;SDS011;44579;51.672;7.834;2022-09-25T10:16:47;6.53;;;1.25;;
58808;SDS011;44579;51.672;7.834;2022-09-25T10:19:17;10.52;;;1.20;;
58808;SDS011;44579;51.672;7.834;2022-09-25T10:21:57;8.38;;;1.55;;
58808;SDS011;44579;51.672;7.834;2022-09-25T10:32:45;5.85;;;1.30;;
58808;SDS011;44579;51.672;7.834;2022-09-25T10:35:19;6.63;;;0.82;;
58808;SDS011;44579;51.672;7.834;2022-09-25T10:37:48;9.90;;;1.48;;
58808;SDS011;44579;51.672;7.834;2022-09-25T10:40:25;3.88;;;0.82;;
58808;SDS011;44579;51.672;7.834;2022-09-25T10:43:04;5.65;;;0.85;;
58808;SDS011;44579;51.672;7.834;2022-09-25T10:45:40;4.20;;;1.23;;
58808;SDS011;44579;51.672;7.834;2022-09-25T10:48:22;4.63;;;0.90;;
58808;SDS011;44579;51.672;7.834;2022-09-25T10:51:13;7.05;;;0.80;;
58808;SDS011;44579;51.672;7.834;2022-09-25T10:53:43;9.32;;;1.00;;
58808;SDS011;44579;51.672;7.834;2022-09-25T10:56:12;8.48;;;1.67;;
58808;SDS011;44579;51.672;7.834;2022-09-25T11:01:21;8.73;;;1.30;;
58808;SDS011;44579;51.672;7.834;2022-09-25T11:03:58;4.57;;;0.93;;
58808;SDS011;44579;51.672;7.834;2022-09-25T11:11:37;4.40;;;1.05;;
58808;SDS011;44579;51.672;7.834;2022-09-25T11:14:07;2.67;;;0.70;;
58808;SDS011;44579;51.672;7.834;2022-09-25T11:16:45;2.80;;;0.80;;
58808;SDS011;44579;51.672;7.834;2022-09-25T11:19:30;5.85;;;1.17;;
58808;SDS011;44579;51.672;7.834;2022-09-25T11:27:33;9.15;;;0.90;;
58808;SDS011;44579;51.672;7.834;2022-09-25T11:30:21;3.88;;;0.88;;
58808;SDS011;44579;51.672;7.834;2022-09-25T11:33:14;5.45;;;0.95;;
58808;SDS011;44579;51.672;7.834;2022-09-25T11:35:51;5.97;;;0.90;;
58808;SDS011;44579;51.672;7.834;2022-09-25T11:38:36;4.70;;;1.45;;
58808;SDS011;44579;51.672;7.834;2022-09-25T11:41:28;11.38;;;1.13;;
58808;SDS011;44579;51.672;7.834;2022-09-25T11:46:35;3.70;;;1.00;;
58808;SDS011;44579;51.672;7.834;2022-09-25T11:57:40;2.25;;;0.60;;
58808;SDS011;44579;51.672;7.834;2022-09-25T12:00:33;4.55;;;0.80;;
58808;SDS011;44579;51.672;7.834;2022-09-25T12:03:33;2.03;;;0.73;;
58808;SDS011;44579;51.672;7.834;2022-09-25T12:12:01;6.07;;;1.00;;
58808;SDS011;44579;51.672;7.834;2022-09-25T12:20:13;4.83;;;0.97;;
58808;SDS011;44579;51.672;7.834;2022-09-25T12:23:08;5.30;;;1.00;;
58808;SDS011;44579;51.672;7.834;2022-09-25T12:31:35;6.72;;;0.90;;
58808;SDS011;44579;51.672;7.834;2022-09-25T12:39:57;3.17;;;0.60;;
58808;SDS011;44579;51.672;7.834;2022-09-25T12:45:21;9.48;;;0.80;;
58808;SDS011;44579;51.672;7.834;2022-09-25T12:50:57;2.38;;;0.60;;
58808;SDS011;44579;51.672;7.834;2022-09-25T12:53:38;5.25;;;1.02;;
58808;SDS011;44579;51.672;7.834;2022-09-25T12:56:12;3.25;;;0.80;;
58808;SDS011;44579;51.672;7.834;2022-09-25T12:58:45;8.57;;;1.02;;
58808;SDS011;44579;51.672;7.834;2022-09-25T13:01:55;2.33;;;0.70;;
58808;SDS011;44579;51.672;7.834;2022-09-25T13:12:48;2.95;;;1.05;;
58808;SDS011;44579;51.672;7.834;2022-09-25T13:15:18;5.55;;;0.70;;
58808;SDS011;44579;51.672;7.834;2022-09-25T13:17:48;4.32;;;0.60;;
58808;SDS011;44579;51.672;7.834;2022-09-25T13:23:10;7.18;;;0.93;;
58808;SDS011;44579;51.672;7.834;2022-09-25T13:25:41;2.25;;;0.70;;
58808;SDS011;44579;51.672;7.834;2022-09-25T13:28:24;7.97;;;1.00;;
58808;SDS011;44579;51.672;7.834;2022-09-25T13:31:01;5.10;;;0.80;;
58808;SDS011;44579;51.672;7.834;2022-09-25T13:38:54;4.20;;;1.13;;
58808;SDS011;44579;51.672;7.834;2022-09-25T13:41:47;2.97;;;0.70;;
58808;SDS011;44579;51.672;7.834;2022-09-25T13:49:49;4.15;;;0.90;;
58808;SDS011;44579;51.672;7.834;2022-09-25T13:52:31;6.22;;;1.23;;
58808;SDS011;44579;51.672;7.834;2022-09-25T13:58:17;7.88;;;1.02;;
58808;SDS011;44579;51.672;7.834;2022-09-25T14:09:11;8.82;;;1.45;;
58808;SDS011;44579;51.672;7.834;2022-09-25T14:11:43;7.00;;;1.30;;
58808;SDS011;44579;51.672;7.834;2022-09-25T14:14:43;9.30;;;1.70;;
58808;SDS011;44579;51.672;7.834;2022-09-25T14:17:18;10.25;;;2.20;;
58808;SDS011;44579;51.672;7.834;2022-09-25T14:19:48;9.20;;;1.60;;
58808;SDS011;44579;51.672;7.834;2022-09-25T14:22:19;8.95;;;1.52;;
58808;SDS011;44579;51.672;7.834;2022-09-25T14:27:59;7.25;;;1.55;;
58808;SDS011;44579;51.672;7.834;2022-09-25T14:30:27;8.30;;;1.58;;
58808;SDS011;44579;51.672;7.834;2022-09-25T14:32:59;3.05;;;1.05;;
58808;SDS011;44579;51.672;7.834;2022-09-25T14:39:05;7.28;;;1.75;;
58808;SDS011;44579;51.672;7.834;2022-09-25T14:45:00;8.82;;;1.60;;
58808;SDS011;44579;51.672;7.834;2022-09-25T14:47:46;5.00;;;1.20;;
58808;SDS011;44579;51.672;7.834;2022-09-25T14:50:50;6.13;;;1.33;;
58808;SDS011;44579;51.672;7.834;2022-09-25T14:53:12;9.98;;;1.40;;
58808;SDS011;44579;51.672;7.834;2022-09-25T14:56:02;10.57;;;1.52;;
58808;SDS011;44579;51.672;7.834;2022-09-25T14:58:38;4.65;;;1.58;;
58808;SDS011;44579;51.672;7.834;2022-09-25T15:01:31;9.90;;;1.23;;
58808;SDS011;44579;51.672;7.834;2022-09-25T15:04:02;12.27;;;1.13;;
58808;SDS011;44579;51.672;7.834;2022-09-25T15:06:35;4.68;;;0.90;;
58808;SDS011;44579;51.672;7.834;2022-09-25T15:12:08;6.20;;;0.98;;
58808;SDS011;44579;51.672;7.834;2022-09-25T15:15:26;13.65;;;1.52;;
58808;SDS011;44579;51.672;7.834;2022-09-25T15:17:47;10.70;;;1.45;;
58808;SDS011;44579;51.672;7.834;2022-09-25T15:20:21;8.95;;;1.33;;
58808;SDS011;44579;51.672;7.834;2022-09-25T15:23:12;5.88;;;0.80;;
58808;SDS011;44579;51.672;7.834;2022-09-25T15:25:44;8.73;;;1.10;;
58808;SDS011;44579;51.672;7.834;2022-09-25T15:28:14;5.65;;;0.90;;
58808;SDS011;44579;51.672;7.834;2022-09-25T15:30:43;6.13;;;1.10;;
58808;SDS011;44579;51.672;7.834;2022-09-25T15:33:21;5.60;;;1.25;;
58808;SDS011;44579;51.672;7.834;2022-09-25T15:35:58;7.18;;;1.25;;
58808;SDS011;44579;51.672;7.834;2022-09-25T15:38:51;5.72;;;1.20;;
58808;SDS011;44579;51.672;7.834;2022-09-25T15:41:20;9.57;;;1.15;;
58808;SDS011;44579;51.672;7.834;2022-09-25T15:43:48;3.70;;;0.90;;
58808;SDS011;44579;51.672;7.834;2022-09-25T15:51:31;6.47;;;1.10;;
58808;SDS011;44579;51.672;7.834;2022-09-25T15:54:03;9.40;;;1.30;;
58808;SDS011;44579;51.672;7.834;2022-09-25T15:56:55;3.58;;;1.02;;
58808;SDS011;44579;51.672;7.834;2022-09-25T16:01:56;2.42;;;1.20;;
58808;SDS011;44579;51.672;7.834;2022-09-25T16:04:47;5.97;;;1.13;;
58808;SDS011;44579;51.672;7.834;2022-09-25T16:07:32;2.28;;;1.00;;
58808;SDS011;44579;51.672;7.834;2022-09-25T16:10:03;7.65;;;1.17;;
58808;SDS011;44579;51.672;7.834;2022-09-25T16:17:53;5.30;;;1.25;;
58808;SDS011;44579;51.672;7.834;2022-09-25T16:20:39;7.55;;;1.25;;
58808;SDS011;44579;51.672;7.834;2022-09-25T16:23:16;5.55;;;1.02;;
58808;SDS011;44579;51.672;7.834;2022-09-25T16:25:54;9.15;;;1.40;;
58808;SDS011;44579;51.672;7.834;2022-09-25T16:28:24;5.78;;;1.27;;
58808;SDS011;44579;51.672;7.834;2022-09-25T16:31:02;6.10;;;1.40;;
58808;SDS011;44579;51.672;7.834;2022-09-25T16:33:34;4.85;;;1.13;;
58808;SDS011;44579;51.672;7.834;2022-09-25T16:36:09;4.45;;;1.27;;
58808;SDS011;44579;51.672;7.834;2022-09-25T16:39:02;11.13;;;1.25;;
58808;SDS011;44579;51.672;7.834;2022-09-25T16:41:36;8.57;;;1.50;;
58808;SDS011;44579;51.672;7.834;2022-09-25T16:46:39;3.45;;;1.00;;
58808;SDS011;44579;51.672;7.834;2022-09-25T16:49:12;12.50;;;1.10;;
58808;SDS011;44579;51.672;7.834;2022-09-25T16:51:40;6.15;;;1.30;;
58808;SDS011;44579;51.672;7.834;2022-09-25T16:54:14;11.10;;;1.75;;
58808;SDS011;44579;51.672;7.834;2022-09-25T16:56:43;5.35;;;1.35;;
58808;SDS011;44579;51.672;7.834;2022-09-25T16:59:22;4.85;;;1.67;;
58808;SDS011;44579;51.672;7.834;2022-09-25T17:01:53;8.30;;;1.45;;
58808;SDS011;44579;51.672;7.834;2022-09-25T17:04:23;6.63;;;1.70;;
58808;SDS011;44579;51.672;7.834;2022-09-25T17:06:53;11.82;;;1.83;;
58808;SDS011;44579;51.672;7.834;2022-09-25T17:09:26;4.97;;;1.83;;
58808;SDS011;44579;51.672;7.834;2022-09-25T17:11:59;7.57;;;2.08;;
58808;SDS011;44579;51.672;7.834;2022-09-25T17:14:30;7.77;;;1.80;;
58808;SDS011;44579;51.672;7.834;2022-09-25T17:16:57;11.68;;;2.20;;
58808;SDS011;44579;51.672;7.834;2022-09-25T17:19:24;8.63;;;3.28;;
58808;SDS011;44579;51.672;7.834;2022-09-25T17:21:51;13.73;;;3.65;;
58808;SDS011;44579;51.672;7.834;2022-09-25T17:24:20;13.05;;;3.20;;
58808;SDS011;44579;51.672;7.834;2022-09-25T17:26:49;8.02;;;2.33;;
58808;SDS011;44579;51.672;7.834;2022-09-25T17:29:17;10.10;;;2.47;;
58808;SDS011;44579;51.672;7.834;2022-09-25T17:31:45;8.15;;;2.03;;
58808;SDS011;44579;51.672;7.834;2022-09-25T17:34:19;7.38;;;2.03;;
58808;SDS011;44579;51.672;7.834;2022-09-25T17:36:50;6.28;;;2.15;;
58808;SDS011;44579;51.672;7.834;2022-09-25T17:39:17;8.23;;;1.65;;
58808;SDS011;44579;51.672;7.834;2022-09-25T17:41:43;6.63;;;1.80;;
58808;SDS011;44579;51.672;7.834;2022-09-25T17:44:17;4.60;;;1.53;;
58808;SDS011;44579;51.672;7.834;2022-09-25T17:46:48;6.72;;;1.50;;
58808;SDS011;44579;51.672;7.834;2022-09-25T17:49:16;6.30;;;1.40;;
58808;SDS011;44579;51.672;7.834;2022-09-25T17:51:43;4.38;;;1.40;;
58808;SDS011;44579;51.672;7.834;2022-09-25T17:54:10;7.07;;;1.30;;
58808;SDS011;44579;51.672;7.834;2022-09-25T17:56:38;11.13;;;1.63;;
58808;SDS011;44579;51.672;7.834;2022-09-25T17:59:08;7.32;;;1.40;;
58808;SDS011;44579;51.672;7.834;2022-09-25T18:01:35;6.07;;;1.60;;
58808;SDS011;44579;51.672;7.834;2022-09-25T18:04:10;7.07;;;1.63;;
58808;SDS011;44579;51.672;7.834;2022-09-25T18:06:49;6.47;;;1.40;;
58808;SDS011;44579;51.672;7.834;2022-09-25T18:09:17;10.13;;;1.95;;
58808;SDS011;44579;51.672;7.834;2022-09-25T18:11:44;11.50;;;1.90;;